sensor_id;sensor_type;location;lat;lon;timestamp;pressure;altitude;pressure_sealevel;temperature
44429;BMP180;30134;47.866;-4.222;2023-11-21T00:02:22;101537.00;;;22.60
44429;BMP180;30134;47.866;-4.222;2023-11-21T00:04:51;101553.00;;;22.60
44429;BMP180;30134;47.866;-4.222;2023-11-21T00:07:18;101556.00;;;22.50
44429;BMP180;30134;47.866;-4.222;2023-11-21T00:09:43;101558.00;;;22.50
44429;BMP180;30134;47.866;-4.222;2023-11-21T00:12:10;101563.00;;;22.60
44429;BMP180;30134;47.866;-4.222;2023-11-21T00:14:39;101558.00;;;22.50
44429;BMP180;30134;47.866;-4.222;2023-11-21T00:17:06;101560.00;;;22.40
44429;BMP180;30134;47.866;-4.222;2023-11-21T00:19:32;101569.00;;;22.50
44429;BMP180;30134;47.866;-4.222;2023-11-21T00:22:00;101568.00;;;22.50
44429;BMP180;30134;47.866;-4.222;2023-11-21T00:24:26;101573.00;;;22.50
44429;BMP180;30134;47.866;-4.222;2023-11-21T00:26:52;101570.00;;;22.40
44429;BMP180;30134;47.866;-4.222;2023-11-21T00:29:21;101582.00;;;22.50
44429;BMP180;30134;47.866;-4.222;2023-11-21T00:31:48;101583.00;;;22.50
44429;BMP180;30134;47.866;-4.222;2023-11-21T00:34:14;101589.00;;;22.50
44429;BMP180;30134;47.866;-4.222;2023-11-21T00:36:40;101594.00;;;22.50
44429;BMP180;30134;47.866;-4.222;2023-11-21T00:39:06;101591.00;;;22.50
44429;BMP180;30134;47.866;-4.222;2023-11-21T00:41:33;101592.00;;;22.50
44429;BMP180;30134;47.866;-4.222;2023-11-21T00:44:00;101584.00;;;22.50
44429;BMP180;30134;47.866;-4.222;2023-11-21T00:46:26;101584.00;;;22.50
44429;BMP180;30134;47.866;-4.222;2023-11-21T00:48:56;101579.00;;;22.50
44429;BMP180;30134;47.866;-4.222;2023-11-21T00:51:23;101581.00;;;22.50
44429;BMP180;30134;47.866;-4.222;2023-11-21T00:53:51;101586.00;;;22.50
44429;BMP180;30134;47.866;-4.222;2023-11-21T00:56:20;101570.00;;;22.50
44429;BMP180;30134;47.866;-4.222;2023-11-21T00:58:46;101569.00;;;22.50
44429;BMP180;30134;47.866;-4.222;2023-11-21T01:01:16;101577.00;;;22.50
44429;BMP180;30134;47.866;-4.222;2023-11-21T01:03:42;101578.00;;;22.40
44429;BMP180;30134;47.866;-4.222;2023-11-21T01:06:09;101589.00;;;22.50
44429;BMP180;30134;47.866;-4.222;2023-11-21T01:08:35;101587.00;;;22.40
44429;BMP180;30134;47.866;-4.222;2023-11-21T01:11:01;101586.00;;;22.50
44429;BMP180;30134;47.866;-4.222;2023-11-21T01:13:27;101582.00;;;22.40
44429;BMP180;30134;47.866;-4.222;2023-11-21T01:15:54;101585.00;;;22.40
44429;BMP180;30134;47.866;-4.222;2023-11-21T01:18:20;101591.00;;;22.50
44429;BMP180;30134;47.866;-4.222;2023-11-21T01:20:46;101594.00;;;22.50
44429;BMP180;30134;47.866;-4.222;2023-11-21T01:23:15;101589.00;;;22.40
44429;BMP180;30134;47.866;-4.222;2023-11-21T01:25:41;101594.00;;;22.40
44429;BMP180;30134;47.866;-4.222;2023-11-21T01:28:07;101595.00;;;21.40
44429;BMP180;30134;47.866;-4.222;2023-11-21T01:30:33;101592.00;;;20.80
44429;BMP180;30134;47.866;-4.222;2023-11-21T01:32:59;101596.00;;;20.50
44429;BMP180;30134;47.866;-4.222;2023-11-21T01:35:25;101590.00;;;20.40
44429;BMP180;30134;47.866;-4.222;2023-11-21T01:37:51;101602.00;;;20.20
44429;BMP180;30134;47.866;-4.222;2023-11-21T01:40:17;101602.00;;;20.20
44429;BMP180;30134;47.866;-4.222;2023-11-21T01:42:46;101608.00;;;20.20
44429;BMP180;30134;47.866;-4.222;2023-11-21T01:45:14;101604.00;;;20.10
44429;BMP180;30134;47.866;-4.222;2023-11-21T01:47:42;101605.00;;;20.10
44429;BMP180;30134;47.866;-4.222;2023-11-21T01:50:16;101602.00;;;20.00
44429;BMP180;30134;47.866;-4.222;2023-11-21T01:52:45;101602.00;;;20.00
44429;BMP180;30134;47.866;-4.222;2023-11-21T01:55:14;101605.00;;;19.90
44429;BMP180;30134;47.866;-4.222;2023-11-21T01:57:44;101604.00;;;19.80
44429;BMP180;30134;47.866;-4.222;2023-11-21T02:00:12;101606.00;;;19.80
44429;BMP180;30134;47.866;-4.222;2023-11-21T02:02:49;101613.00;;;19.80
44429;BMP180;30134;47.866;-4.222;2023-11-21T02:05:19;101616.00;;;19.80
44429;BMP180;30134;47.866;-4.222;2023-11-21T02:07:49;101620.00;;;19.80
44429;BMP180;30134;47.866;-4.222;2023-11-21T02:10:21;101622.00;;;19.80
44429;BMP180;30134;47.866;-4.222;2023-11-21T02:12:53;101620.00;;;19.70
44429;BMP180;30134;47.866;-4.222;2023-11-21T02:15:22;101623.00;;;19.70
44429;BMP180;30134;47.866;-4.222;2023-11-21T02:17:56;101615.00;;;19.70
44429;BMP180;30134;47.866;-4.222;2023-11-21T02:20:27;101625.00;;;19.70
44429;BMP180;30134;47.866;-4.222;2023-11-21T02:22:58;101605.00;;;19.70
44429;BMP180;30134;47.866;-4.222;2023-11-21T02:25:33;101617.00;;;19.60
44429;BMP180;30134;47.866;-4.222;2023-11-21T02:28:03;101606.00;;;19.60
44429;BMP180;30134;47.866;-4.222;2023-11-21T02:30:33;101607.00;;;19.60
44429;BMP180;30134;47.866;-4.222;2023-11-21T02:33:03;101599.00;;;19.60
44429;BMP180;30134;47.866;-4.222;2023-11-21T02:35:34;101602.00;;;19.60
44429;BMP180;30134;47.866;-4.222;2023-11-21T02:38:04;101604.00;;;19.60
44429;BMP180;30134;47.866;-4.222;2023-11-21T02:40:35;101607.00;;;19.60
44429;BMP180;30134;47.866;-4.222;2023-11-21T02:43:05;101614.00;;;19.50
44429;BMP180;30134;47.866;-4.222;2023-11-21T02:45:35;101616.00;;;19.50
44429;BMP180;30134;47.866;-4.222;2023-11-21T02:48:06;101624.00;;;19.50
44429;BMP180;30134;47.866;-4.222;2023-11-21T02:50:37;101627.00;;;19.50
44429;BMP180;30134;47.866;-4.222;2023-11-21T02:53:10;101630.00;;;19.50
44429;BMP180;30134;47.866;-4.222;2023-11-21T02:55:42;101637.00;;;19.50
44429;BMP180;30134;47.866;-4.222;2023-11-21T02:58:13;101644.00;;;19.50
44429;BMP180;30134;47.866;-4.222;2023-11-21T03:00:45;101659.00;;;19.50
44429;BMP180;30134;47.866;-4.222;2023-11-21T03:03:17;101661.00;;;19.40
44429;BMP180;30134;47.866;-4.222;2023-11-21T03:05:49;101666.00;;;19.50
44429;BMP180;30134;47.866;-4.222;2023-11-21T03:08:21;101660.00;;;19.40
44429;BMP180;30134;47.866;-4.222;2023-11-21T03:10:52;101653.00;;;19.40
44429;BMP180;30134;47.866;-4.222;2023-11-21T03:13:24;101649.00;;;19.30
44429;BMP180;30134;47.866;-4.222;2023-11-21T03:15:56;101643.00;;;19.40
44429;BMP180;30134;47.866;-4.222;2023-11-21T03:18:27;101649.00;;;19.40
44429;BMP180;30134;47.866;-4.222;2023-11-21T03:21:00;101650.00;;;19.40
44429;BMP180;30134;47.866;-4.222;2023-11-21T03:23:32;101651.00;;;19.40
44429;BMP180;30134;47.866;-4.222;2023-11-21T03:26:03;101654.00;;;19.40
44429;BMP180;30134;47.866;-4.222;2023-11-21T03:28:35;101658.00;;;19.40
44429;BMP180;30134;47.866;-4.222;2023-11-21T03:31:07;101661.00;;;19.40
44429;BMP180;30134;47.866;-4.222;2023-11-21T03:33:40;101641.00;;;19.40
44429;BMP180;30134;47.866;-4.222;2023-11-21T03:36:12;101640.00;;;19.30
44429;BMP180;30134;47.866;-4.222;2023-11-21T03:38:43;101633.00;;;19.30
44429;BMP180;30134;47.866;-4.222;2023-11-21T03:41:15;101626.00;;;19.30
44429;BMP180;30134;47.866;-4.222;2023-11-21T03:43:46;101622.00;;;19.40
44429;BMP180;30134;47.866;-4.222;2023-11-21T03:46:18;101626.00;;;19.40
44429;BMP180;30134;47.866;-4.222;2023-11-21T03:48:49;101617.00;;;19.30
44429;BMP180;30134;47.866;-4.222;2023-11-21T03:51:21;101615.00;;;19.30
44429;BMP180;30134;47.866;-4.222;2023-11-21T03:53:53;101617.00;;;19.30
44429;BMP180;30134;47.866;-4.222;2023-11-21T03:56:25;101621.00;;;19.40
44429;BMP180;30134;47.866;-4.222;2023-11-21T03:58:57;101626.00;;;19.40
44429;BMP180;30134;47.866;-4.222;2023-11-21T04:01:28;101625.00;;;19.40
44429;BMP180;30134;47.866;-4.222;2023-11-21T04:04:02;101626.00;;;19.30
44429;BMP180;30134;47.866;-4.222;2023-11-21T04:06:36;101625.00;;;19.30
44429;BMP180;30134;47.866;-4.222;2023-11-21T04:09:11;101634.00;;;19.30
44429;BMP180;30134;47.866;-4.222;2023-11-21T04:11:44;101642.00;;;19.30
44429;BMP180;30134;47.866;-4.222;2023-11-21T04:14:19;101633.00;;;19.30
44429;BMP180;30134;47.866;-4.222;2023-11-21T04:16:53;101638.00;;;19.30
44429;BMP180;30134;47.866;-4.222;2023-11-21T04:19:27;101642.00;;;19.40
44429;BMP180;30134;47.866;-4.222;2023-11-21T04:22:00;101642.00;;;19.30
44429;BMP180;30134;47.866;-4.222;2023-11-21T04:24:36;101642.00;;;19.30
44429;BMP180;30134;47.866;-4.222;2023-11-21T04:27:10;101650.00;;;19.30
44429;BMP180;30134;47.866;-4.222;2023-11-21T04:29:45;101645.00;;;19.30
44429;BMP180;30134;47.866;-4.222;2023-11-21T04:32:21;101651.00;;;19.20
44429;BMP180;30134;47.866;-4.222;2023-11-21T04:34:59;101657.00;;;19.30
44429;BMP180;30134;47.866;-4.222;2023-11-21T04:37:37;101664.00;;;19.30
44429;BMP180;30134;47.866;-4.222;2023-11-21T04:40:15;101665.00;;;19.30
44429;BMP180;30134;47.866;-4.222;2023-11-21T04:42:52;101669.00;;;19.30
44429;BMP180;30134;47.866;-4.222;2023-11-21T04:45:30;101682.00;;;19.30
44429;BMP180;30134;47.866;-4.222;2023-11-21T04:48:08;101687.00;;;19.30
44429;BMP180;30134;47.866;-4.222;2023-11-21T04:50:46;101684.00;;;19.20
44429;BMP180;30134;47.866;-4.222;2023-11-21T04:53:24;101690.00;;;19.30
44429;BMP180;30134;47.866;-4.222;2023-11-21T04:56:00;101692.00;;;19.20
44429;BMP180;30134;47.866;-4.222;2023-11-21T04:58:37;101695.00;;;19.30
44429;BMP180;30134;47.866;-4.222;2023-11-21T05:01:17;101693.00;;;19.30
44429;BMP180;30134;47.866;-4.222;2023-11-21T05:03:53;101689.00;;;19.20
44429;BMP180;30134;47.866;-4.222;2023-11-21T05:06:28;101690.00;;;19.30
44429;BMP180;30134;47.866;-4.222;2023-11-21T05:09:02;101688.00;;;19.20
44429;BMP180;30134;47.866;-4.222;2023-11-21T05:11:40;101686.00;;;19.20
44429;BMP180;30134;47.866;-4.222;2023-11-21T05:14:18;101685.00;;;19.20
44429;BMP180;30134;47.866;-4.222;2023-11-21T05:16:56;101683.00;;;19.20
44429;BMP180;30134;47.866;-4.222;2023-11-21T05:19:32;101697.00;;;19.20
44429;BMP180;30134;47.866;-4.222;2023-11-21T05:22:10;101688.00;;;19.20
44429;BMP180;30134;47.866;-4.222;2023-11-21T05:24:49;101693.00;;;19.20
44429;BMP180;30134;47.866;-4.222;2023-11-21T05:27:28;101695.00;;;19.20
44429;BMP180;30134;47.866;-4.222;2023-11-21T05:30:05;101698.00;;;19.20
44429;BMP180;30134;47.866;-4.222;2023-11-21T05:32:44;101692.00;;;19.20
44429;BMP180;30134;47.866;-4.222;2023-11-21T05:35:23;101698.00;;;19.30
44429;BMP180;30134;47.866;-4.222;2023-11-21T05:38:01;101696.00;;;19.20
44429;BMP180;30134;47.866;-4.222;2023-11-21T05:40:39;101689.00;;;19.30
44429;BMP180;30134;47.866;-4.222;2023-11-21T05:43:17;101690.00;;;19.30
44429;BMP180;30134;47.866;-4.222;2023-11-21T05:45:55;101693.00;;;19.30
44429;BMP180;30134;47.866;-4.222;2023-11-21T05:48:33;101704.00;;;19.20
44429;BMP180;30134;47.866;-4.222;2023-11-21T05:51:11;101702.00;;;19.20
44429;BMP180;30134;47.866;-4.222;2023-11-21T05:53:50;101700.00;;;19.20
44429;BMP180;30134;47.866;-4.222;2023-11-21T05:56:27;101702.00;;;19.30
44429;BMP180;30134;47.866;-4.222;2023-11-21T05:59:05;101703.00;;;19.20
44429;BMP180;30134;47.866;-4.222;2023-11-21T06:01:44;101706.00;;;19.20
44429;BMP180;30134;47.866;-4.222;2023-11-21T06:04:23;101701.00;;;19.20
44429;BMP180;30134;47.866;-4.222;2023-11-21T06:07:04;101713.00;;;19.20
44429;BMP180;30134;47.866;-4.222;2023-11-21T06:09:44;101708.00;;;19.20
44429;BMP180;30134;47.866;-4.222;2023-11-21T06:12:22;101706.00;;;19.20
44429;BMP180;30134;47.866;-4.222;2023-11-21T06:15:02;101700.00;;;19.30
44429;BMP180;30134;47.866;-4.222;2023-11-21T06:17:44;101708.00;;;19.20
44429;BMP180;30134;47.866;-4.222;2023-11-21T06:20:28;101716.00;;;19.20
44429;BMP180;30134;47.866;-4.222;2023-11-21T06:23:08;101716.00;;;19.20
44429;BMP180;30134;47.866;-4.222;2023-11-21T06:25:46;101719.00;;;19.20
44429;BMP180;30134;47.866;-4.222;2023-11-21T06:28:28;101712.00;;;19.20
44429;BMP180;30134;47.866;-4.222;2023-11-21T06:31:08;101704.00;;;19.20
44429;BMP180;30134;47.866;-4.222;2023-11-21T06:33:46;101711.00;;;19.20
44429;BMP180;30134;47.866;-4.222;2023-11-21T06:36:24;101714.00;;;19.10
44429;BMP180;30134;47.866;-4.222;2023-11-21T06:39:05;101724.00;;;19.20
44429;BMP180;30134;47.866;-4.222;2023-11-21T06:41:45;101729.00;;;19.20
44429;BMP180;30134;47.866;-4.222;2023-11-21T06:44:25;101733.00;;;19.20
44429;BMP180;30134;47.866;-4.222;2023-11-21T06:47:07;101725.00;;;19.20
44429;BMP180;30134;47.866;-4.222;2023-11-21T06:49:47;101729.00;;;19.20
44429;BMP180;30134;47.866;-4.222;2023-11-21T06:52:29;101731.00;;;19.20
44429;BMP180;30134;47.866;-4.222;2023-11-21T06:55:07;101730.00;;;19.20
44429;BMP180;30134;47.866;-4.222;2023-11-21T06:57:50;101742.00;;;19.10
44429;BMP180;30134;47.866;-4.222;2023-11-21T07:00:34;101753.00;;;19.20
44429;BMP180;30134;47.866;-4.222;2023-11-21T07:03:16;101757.00;;;19.10
44429;BMP180;30134;47.866;-4.222;2023-11-21T07:06:00;101761.00;;;19.20
44429;BMP180;30134;47.866;-4.222;2023-11-21T07:08:42;101765.00;;;19.10
44429;BMP180;30134;47.866;-4.222;2023-11-21T07:11:22;101757.00;;;19.10
44429;BMP180;30134;47.866;-4.222;2023-11-21T07:14:05;101773.00;;;19.10
44429;BMP180;30134;47.866;-4.222;2023-11-21T07:16:53;101773.00;;;19.10
44429;BMP180;30134;47.866;-4.222;2023-11-21T07:19:35;101781.00;;;19.20
44429;BMP180;30134;47.866;-4.222;2023-11-21T07:22:17;101776.00;;;19.10
44429;BMP180;30134;47.866;-4.222;2023-11-21T07:25:01;101786.00;;;19.10
44429;BMP180;30134;47.866;-4.222;2023-11-21T07:27:42;101784.00;;;19.20
44429;BMP180;30134;47.866;-4.222;2023-11-21T07:30:22;101788.00;;;19.10
44429;BMP180;30134;47.866;-4.222;2023-11-21T07:33:04;101793.00;;;19.20
44429;BMP180;30134;47.866;-4.222;2023-11-21T07:35:45;101779.00;;;19.10
44429;BMP180;30134;47.866;-4.222;2023-11-21T07:38:27;101793.00;;;19.20
44429;BMP180;30134;47.866;-4.222;2023-11-21T07:41:12;101790.00;;;19.10
44429;BMP180;30134;47.866;-4.222;2023-11-21T07:43:57;101790.00;;;19.10
44429;BMP180;30134;47.866;-4.222;2023-11-21T07:46:37;101795.00;;;19.20
44429;BMP180;30134;47.866;-4.222;2023-11-21T07:49:19;101798.00;;;19.20
44429;BMP180;30134;47.866;-4.222;2023-11-21T07:52:00;101795.00;;;19.10
44429;BMP180;30134;47.866;-4.222;2023-11-21T07:54:40;101796.00;;;19.10
44429;BMP180;30134;47.866;-4.222;2023-11-21T07:57:23;101813.00;;;19.10
44429;BMP180;30134;47.866;-4.222;2023-11-21T08:00:01;101816.00;;;19.10
44429;BMP180;30134;47.866;-4.222;2023-11-21T08:02:45;101810.00;;;19.10
44429;BMP180;30134;47.866;-4.222;2023-11-21T08:05:26;101819.00;;;19.10
44429;BMP180;30134;47.866;-4.222;2023-11-21T08:08:08;101822.00;;;19.20
44429;BMP180;30134;47.866;-4.222;2023-11-21T08:10:49;101826.00;;;19.10
44429;BMP180;30134;47.866;-4.222;2023-11-21T08:13:36;101823.00;;;19.10
44429;BMP180;30134;47.866;-4.222;2023-11-21T08:16:16;101831.00;;;19.20
44429;BMP180;30134;47.866;-4.222;2023-11-21T08:19:00;101828.00;;;19.10
44429;BMP180;30134;47.866;-4.222;2023-11-21T08:21:42;101828.00;;;19.20
44429;BMP180;30134;47.866;-4.222;2023-11-21T08:24:23;101838.00;;;19.20
44429;BMP180;30134;47.866;-4.222;2023-11-21T08:27:05;101846.00;;;19.10
44429;BMP180;30134;47.866;-4.222;2023-11-21T08:29:36;101847.00;;;19.10
44429;BMP180;30134;47.866;-4.222;2023-11-21T08:32:05;101850.00;;;19.10
44429;BMP180;30134;47.866;-4.222;2023-11-21T08:34:33;101849.00;;;19.20
44429;BMP180;30134;47.866;-4.222;2023-11-21T08:37:02;101839.00;;;19.10
44429;BMP180;30134;47.866;-4.222;2023-11-21T08:39:30;101843.00;;;19.10
44429;BMP180;30134;47.866;-4.222;2023-11-21T08:41:59;101855.00;;;19.10
44429;BMP180;30134;47.866;-4.222;2023-11-21T08:44:28;101854.00;;;19.20
44429;BMP180;30134;47.866;-4.222;2023-11-21T08:46:56;101856.00;;;19.20
44429;BMP180;30134;47.866;-4.222;2023-11-21T08:49:24;101847.00;;;19.00
44429;BMP180;30134;47.866;-4.222;2023-11-21T08:51:55;101849.00;;;18.90
44429;BMP180;30134;47.866;-4.222;2023-11-21T08:54:23;101847.00;;;19.00
44429;BMP180;30134;47.866;-4.222;2023-11-21T08:56:53;101856.00;;;19.00
44429;BMP180;30134;47.866;-4.222;2023-11-21T08:59:23;101860.00;;;19.00
44429;BMP180;30134;47.866;-4.222;2023-11-21T09:01:52;101862.00;;;19.10
44429;BMP180;30134;47.866;-4.222;2023-11-21T09:04:20;101862.00;;;19.10
44429;BMP180;30134;47.866;-4.222;2023-11-21T09:06:48;101859.00;;;19.10
44429;BMP180;30134;47.866;-4.222;2023-11-21T09:09:17;101870.00;;;19.10
44429;BMP180;30134;47.866;-4.222;2023-11-21T09:11:45;101882.00;;;19.10
44429;BMP180;30134;47.866;-4.222;2023-11-21T09:14:14;101887.00;;;19.10
44429;BMP180;30134;47.866;-4.222;2023-11-21T09:16:44;101885.00;;;19.00
44429;BMP180;30134;47.866;-4.222;2023-11-21T09:19:12;101882.00;;;19.10
44429;BMP180;30134;47.866;-4.222;2023-11-21T09:21:42;101890.00;;;19.10
44429;BMP180;30134;47.866;-4.222;2023-11-21T09:24:10;101892.00;;;19.20
44429;BMP180;30134;47.866;-4.222;2023-11-21T09:26:39;101900.00;;;19.00
44429;BMP180;30134;47.866;-4.222;2023-11-21T09:29:07;101899.00;;;19.10
44429;BMP180;30134;47.866;-4.222;2023-11-21T09:31:34;101897.00;;;19.10
44429;BMP180;30134;47.866;-4.222;2023-11-21T09:34:03;101905.00;;;19.20
44429;BMP180;30134;47.866;-4.222;2023-11-21T09:36:30;101912.00;;;19.10
44429;BMP180;30134;47.866;-4.222;2023-11-21T09:38:58;101900.00;;;19.00
44429;BMP180;30134;47.866;-4.222;2023-11-21T09:41:49;101906.00;;;19.10
44429;BMP180;30134;47.866;-4.222;2023-11-21T09:44:18;101906.00;;;19.10
44429;BMP180;30134;47.866;-4.222;2023-11-21T09:46:48;101912.00;;;19.10
44429;BMP180;30134;47.866;-4.222;2023-11-21T09:49:15;101915.00;;;19.20
44429;BMP180;30134;47.866;-4.222;2023-11-21T09:51:47;101908.00;;;19.10
44429;BMP180;30134;47.866;-4.222;2023-11-21T09:54:18;101916.00;;;19.20
44429;BMP180;30134;47.866;-4.222;2023-11-21T09:56:48;101923.00;;;19.20
44429;BMP180;30134;47.866;-4.222;2023-11-21T09:59:18;101929.00;;;19.20
44429;BMP180;30134;47.866;-4.222;2023-11-21T10:01:47;101933.00;;;19.10
44429;BMP180;30134;47.866;-4.222;2023-11-21T10:04:16;101928.00;;;19.10
44429;BMP180;30134;47.866;-4.222;2023-11-21T10:06:46;101937.00;;;19.20
44429;BMP180;30134;47.866;-4.222;2023-11-21T10:09:16;101944.00;;;19.20
44429;BMP180;30134;47.866;-4.222;2023-11-21T10:11:45;101959.00;;;19.30
44429;BMP180;30134;47.866;-4.222;2023-11-21T10:14:14;101945.00;;;19.40
44429;BMP180;30134;47.866;-4.222;2023-11-21T10:16:44;101949.00;;;19.20
44429;BMP180;30134;47.866;-4.222;2023-11-21T10:19:13;101950.00;;;19.10
44429;BMP180;30134;47.866;-4.222;2023-11-21T10:21:44;101966.00;;;19.20
44429;BMP180;30134;47.866;-4.222;2023-11-21T10:24:10;101970.00;;;19.20
44429;BMP180;30134;47.866;-4.222;2023-11-21T10:26:39;101961.00;;;19.20
44429;BMP180;30134;47.866;-4.222;2023-11-21T10:29:07;101967.00;;;19.20
44429;BMP180;30134;47.866;-4.222;2023-11-21T10:31:33;101968.00;;;19.30
44429;BMP180;30134;47.866;-4.222;2023-11-21T10:34:16;101969.00;;;19.20
44429;BMP180;30134;47.866;-4.222;2023-11-21T10:36:44;101977.00;;;19.30
44429;BMP180;30134;47.866;-4.222;2023-11-21T10:39:16;101984.00;;;19.30
44429;BMP180;30134;47.866;-4.222;2023-11-21T10:41:46;101980.00;;;19.30
44429;BMP180;30134;47.866;-4.222;2023-11-21T10:44:21;101984.00;;;19.30
44429;BMP180;30134;47.866;-4.222;2023-11-21T10:46:51;101977.00;;;19.40
44429;BMP180;30134;47.866;-4.222;2023-11-21T10:49:19;101977.00;;;19.40
44429;BMP180;30134;47.866;-4.222;2023-11-21T10:51:46;101983.00;;;19.40
44429;BMP180;30134;47.866;-4.222;2023-11-21T10:54:18;101983.00;;;19.30
44429;BMP180;30134;47.866;-4.222;2023-11-21T10:56:49;101975.00;;;19.40
44429;BMP180;30134;47.866;-4.222;2023-11-21T10:59:17;101982.00;;;19.40
44429;BMP180;30134;47.866;-4.222;2023-11-21T11:01:47;101981.00;;;19.30
44429;BMP180;30134;47.866;-4.222;2023-11-21T11:04:19;101988.00;;;19.40
44429;BMP180;30134;47.866;-4.222;2023-11-21T11:07:04;101982.00;;;19.40
44429;BMP180;30134;47.866;-4.222;2023-11-21T11:09:36;101983.00;;;19.40
44429;BMP180;30134;47.866;-4.222;2023-11-21T11:12:03;101974.00;;;19.40
44429;BMP180;30134;47.866;-4.222;2023-11-21T11:14:30;101983.00;;;19.40
44429;BMP180;30134;47.866;-4.222;2023-11-21T11:16:58;101984.00;;;19.40
44429;BMP180;30134;47.866;-4.222;2023-11-21T11:19:26;101980.00;;;19.40
44429;BMP180;30134;47.866;-4.222;2023-11-21T11:25:03;101977.00;;;19.40
44429;BMP180;30134;47.866;-4.222;2023-11-21T11:30:22;101987.00;;;19.30
44429;BMP180;30134;47.866;-4.222;2023-11-21T11:35:52;101978.00;;;19.40
44429;BMP180;30134;47.866;-4.222;2023-11-21T11:38:24;101983.00;;;19.40
44429;BMP180;30134;47.866;-4.222;2023-11-21T11:40:53;101989.00;;;19.40
44429;BMP180;30134;47.866;-4.222;2023-11-21T11:43:27;101987.00;;;19.40
44429;BMP180;30134;47.866;-4.222;2023-11-21T11:45:57;101989.00;;;19.40
44429;BMP180;30134;47.866;-4.222;2023-11-21T11:48:29;101992.00;;;19.40
44429;BMP180;30134;47.866;-4.222;2023-11-21T11:51:10;101994.00;;;19.40
44429;BMP180;30134;47.866;-4.222;2023-11-21T11:53:41;101998.00;;;19.40
44429;BMP180;30134;47.866;-4.222;2023-11-21T11:58:58;101989.00;;;19.50
44429;BMP180;30134;47.866;-4.222;2023-11-21T12:01:26;101992.00;;;19.60
44429;BMP180;30134;47.866;-4.222;2023-11-21T12:04:25;101999.00;;;19.80
44429;BMP180;30134;47.866;-4.222;2023-11-21T12:07:00;102002.00;;;19.90
44429;BMP180;30134;47.866;-4.222;2023-11-21T12:09:29;102009.00;;;20.10
44429;BMP180;30134;47.866;-4.222;2023-11-21T12:11:57;102011.00;;;20.20
44429;BMP180;30134;47.866;-4.222;2023-11-21T12:14:26;102012.00;;;20.30
44429;BMP180;30134;47.866;-4.222;2023-11-21T12:16:54;102014.00;;;20.30
44429;BMP180;30134;47.866;-4.222;2023-11-21T12:19:20;102011.00;;;20.40
44429;BMP180;30134;47.866;-4.222;2023-11-21T12:21:47;102025.00;;;20.50
44429;BMP180;30134;47.866;-4.222;2023-11-21T12:24:15;102017.00;;;20.50
44429;BMP180;30134;47.866;-4.222;2023-11-21T12:26:42;102011.00;;;20.60
44429;BMP180;30134;47.866;-4.222;2023-11-21T12:29:10;102013.00;;;20.60
44429;BMP180;30134;47.866;-4.222;2023-11-21T12:31:36;102026.00;;;20.70
44429;BMP180;30134;47.866;-4.222;2023-11-21T12:34:03;102020.00;;;20.70
44429;BMP180;30134;47.866;-4.222;2023-11-21T12:36:30;102018.00;;;20.80
44429;BMP180;30134;47.866;-4.222;2023-11-21T12:38:57;102019.00;;;20.80
44429;BMP180;30134;47.866;-4.222;2023-11-21T12:41:23;102014.00;;;20.80
44429;BMP180;30134;47.866;-4.222;2023-11-21T12:43:50;102014.00;;;20.80
44429;BMP180;30134;47.866;-4.222;2023-11-21T12:46:16;102022.00;;;20.90
44429;BMP180;30134;47.866;-4.222;2023-11-21T12:48:44;102018.00;;;20.90
44429;BMP180;30134;47.866;-4.222;2023-11-21T12:51:12;102025.00;;;20.90
44429;BMP180;30134;47.866;-4.222;2023-11-21T12:53:43;102022.00;;;20.90
44429;BMP180;30134;47.866;-4.222;2023-11-21T12:56:13;102029.00;;;21.00
44429;BMP180;30134;47.866;-4.222;2023-11-21T12:58:40;102028.00;;;21.00
44429;BMP180;30134;47.866;-4.222;2023-11-21T13:01:13;102023.00;;;21.00
44429;BMP180;30134;47.866;-4.222;2023-11-21T13:03:47;102011.00;;;21.10
44429;BMP180;30134;47.866;-4.222;2023-11-21T13:06:15;102028.00;;;21.00
44429;BMP180;30134;47.866;-4.222;2023-11-21T13:08:43;102023.00;;;21.10
44429;BMP180;30134;47.866;-4.222;2023-11-21T13:11:11;102022.00;;;21.10
44429;BMP180;30134;47.866;-4.222;2023-11-21T13:13:41;102026.00;;;21.20
44429;BMP180;30134;47.866;-4.222;2023-11-21T13:16:09;102028.00;;;21.20
44429;BMP180;30134;47.866;-4.222;2023-11-21T13:18:36;102033.00;;;21.20
44429;BMP180;30134;47.866;-4.222;2023-11-21T13:21:05;102027.00;;;21.20
44429;BMP180;30134;47.866;-4.222;2023-11-21T13:23:37;102025.00;;;21.30
44429;BMP180;30134;47.866;-4.222;2023-11-21T13:26:04;102021.00;;;21.30
44429;BMP180;30134;47.866;-4.222;2023-11-21T13:28:31;102020.00;;;21.30
44429;BMP180;30134;47.866;-4.222;2023-11-21T13:31:01;102027.00;;;21.30
44429;BMP180;30134;47.866;-4.222;2023-11-21T13:33:47;102032.00;;;21.40
44429;BMP180;30134;47.866;-4.222;2023-11-21T13:36:22;102044.00;;;21.30
44429;BMP180;30134;47.866;-4.222;2023-11-21T13:38:51;102042.00;;;21.40
44429;BMP180;30134;47.866;-4.222;2023-11-21T13:41:21;102049.00;;;21.40
44429;BMP180;30134;47.866;-4.222;2023-11-21T13:43:54;102046.00;;;21.40
44429;BMP180;30134;47.866;-4.222;2023-11-21T13:46:29;102056.00;;;21.40
44429;BMP180;30134;47.866;-4.222;2023-11-21T13:49:01;102058.00;;;21.50
44429;BMP180;30134;47.866;-4.222;2023-11-21T13:51:27;102059.00;;;21.50
44429;BMP180;30134;47.866;-4.222;2023-11-21T13:54:03;102065.00;;;21.50
44429;BMP180;30134;47.866;-4.222;2023-11-21T13:56:35;102072.00;;;21.40
44429;BMP180;30134;47.866;-4.222;2023-11-21T13:59:03;102078.00;;;21.50
44429;BMP180;30134;47.866;-4.222;2023-11-21T14:01:40;102086.00;;;21.40
44429;BMP180;30134;47.866;-4.222;2023-11-21T14:04:19;102084.00;;;21.40
44429;BMP180;30134;47.866;-4.222;2023-11-21T14:06:57;102084.00;;;21.50
44429;BMP180;30134;47.866;-4.222;2023-11-21T14:09:26;102086.00;;;21.40
44429;BMP180;30134;47.866;-4.222;2023-11-21T14:11:59;102091.00;;;21.50
44429;BMP180;30134;47.866;-4.222;2023-11-21T14:14:27;102091.00;;;21.50
44429;BMP180;30134;47.866;-4.222;2023-11-21T14:16:56;102080.00;;;21.50
44429;BMP180;30134;47.866;-4.222;2023-11-21T14:19:24;102089.00;;;21.60
44429;BMP180;30134;47.866;-4.222;2023-11-21T14:21:57;102097.00;;;21.50
44429;BMP180;30134;47.866;-4.222;2023-11-21T14:24:24;102102.00;;;21.50
44429;BMP180;30134;47.866;-4.222;2023-11-21T14:26:51;102102.00;;;21.60